Time;durP1;ratioP1;P1;durP2;ratioP2;P2;SDS_P1;SDS_P2;PMS_P1;PMS_P2;Temp;Humidity;BMP_temperature;BMP_pressure;BME280_temperature;BME280_humidity;BME280_pressure;Samples;Min_cycle;Max_cycle;Signal;HPM_P1;HPM_P2
2024/01/11 00:01:13;;;;;;;21.67;10.83;;;-6.10;1.00;;;;;;5185050;28;19909;-30
2024/01/11 00:03:45;;;;;;;30.13;11.85;;;-6.10;1.00;;;;;;5189009;28;20032;-30
2024/01/11 00:06:21;;;;;;;40.67;18.13;;;-6.20;1.00;;;;;;5184591;28;20327;-30
2024/01/11 00:08:53;;;;;;;26.30;13.67;;;-6.20;1.00;;;;;;5161182;28;20050;-30
2024/01/11 00:11:27;;;;;;;19.73;10.53;;;-6.30;1.00;;;;;;5158931;28;20038;-30
2024/01/11 00:14:01;;;;;;;22.63;12.63;;;-6.30;1.00;;;;;;5187520;28;20349;-30
2024/01/11 00:16:32;;;;;;;23.83;11.57;;;-6.30;1.00;;;;;;5181827;28;20337;-30
2024/01/11 00:19:06;;;;;;;22.13;11.23;;;-6.20;1.00;;;;;;5169930;28;20049;-30
2024/01/11 00:21:38;;;;;;;26.17;11.90;;;-6.20;1.00;;;;;;5156836;28;20372;-31
2024/01/11 00:24:11;;;;;;;26.10;11.70;;;-6.20;1.00;;;;;;5187836;28;20044;-31
2024/01/11 00:26:42;;;;;;;26.17;11.80;;;-6.20;1.00;;;;;;5187003;28;20041;-31
2024/01/11 00:29:14;;;;;;;24.37;12.33;;;-6.20;1.00;;;;;;5192574;28;20087;-31
2024/01/11 00:31:47;;;;;;;22.70;12.10;;;-6.20;1.00;;;;;;5150569;28;20022;-31
2024/01/11 00:34:18;;;;;;;23.73;10.95;;;-6.20;1.00;;;;;;5176716;28;20041;-31
2024/01/11 00:36:52;;;;;;;25.60;11.90;;;-6.10;1.00;;;;;;5187165;28;20042;-31
2024/01/11 00:39:24;;;;;;;;;;;-6.10;1.00;;;;;;5187628;28;20021;-31
2024/01/11 00:41:58;;;;;;;20.70;10.87;;;-6.10;1.00;;;;;;5147202;28;19919;-31
2024/01/11 00:44:31;;;;;;;;;;;-6.10;1.00;;;;;;5186885;28;20048;-31
2024/01/11 00:47:05;;;;;;;18.88;10.88;;;-6.20;1.00;;;;;;5174469;28;19913;-31
2024/01/11 00:49:38;;;;;;;;;;;-6.30;1.00;;;;;;5180945;28;20323;-31
2024/01/11 00:52:14;;;;;;;22.37;11.70;;;-6.30;1.00;;;;;;5198325;28;19917;-30
2024/01/11 00:54:50;;;;;;;26.13;12.07;;;-6.30;1.00;;;;;;5193770;28;20364;-30
2024/01/11 00:57:21;;;;;;;27.93;13.33;;;-6.30;1.00;;;;;;5189362;28;20333;-31
2024/01/11 00:59:52;;;;;;;23.30;12.30;;;-6.20;1.00;;;;;;5207177;28;20041;-30
2024/01/11 01:02:24;;;;;;;23.87;12.40;;;-6.20;1.00;;;;;;5187277;28;20036;-30
2024/01/11 01:04:55;;;;;;;23.00;11.90;;;-6.10;1.00;;;;;;5187201;28;20305;-30
2024/01/11 01:07:26;;;;;;;26.07;13.10;;;-6.10;1.00;;;;;;5187129;28;20029;-33
2024/01/11 01:09:57;;;;;;;20.40;11.63;;;-6.10;1.00;;;;;;5168955;28;20042;-31
2024/01/11 01:12:28;;;;;;;24.40;13.07;;;-6.10;1.00;;;;;;5169047;28;20329;-30
2024/01/11 01:15:00;;;;;;;24.27;12.90;;;-6.20;1.00;;;;;;5187410;28;20429;-30
2024/01/11 01:17:34;;;;;;;23.10;11.70;;;-6.30;1.00;;;;;;5179074;28;20040;-30
2024/01/11 01:20:08;;;;;;;22.50;11.13;;;-6.30;1.00;;;;;;5163266;28;20049;-30
2024/01/11 01:22:42;;;;;;;19.13;11.87;;;-6.40;1.00;;;;;;5184512;28;20029;-30
2024/01/11 01:25:13;;;;;;;21.98;12.13;;;-6.50;1.00;;;;;;5189861;28;20030;-30
2024/01/11 01:27:44;;;;;;;25.23;13.90;;;-6.60;1.00;;;;;;5192218;28;20021;-30
2024/01/11 01:30:18;;;;;;;22.07;12.43;;;-6.80;1.00;;;;;;5203855;28;20025;-30
2024/01/11 01:32:52;;;;;;;26.13;13.30;;;-6.90;1.00;;;;;;5188432;28;20029;-31
2024/01/11 01:35:23;;;;;;;22.73;12.97;;;-7.00;1.00;;;;;;5170932;28;20045;-31
2024/01/11 01:37:57;;;;;;;26.60;14.13;;;-6.90;1.00;;;;;;5186952;28;20271;-30
2024/01/11 01:40:31;;;;;;;24.92;12.85;;;-6.90;1.00;;;;;;5185586;28;20243;-30
2024/01/11 01:43:08;;;;;;;22.00;12.23;;;-6.90;19.30;;;;;;5187458;28;20219;-30
2024/01/11 01:45:45;;;;;;;26.40;12.57;;;-6.90;28.80;;;;;;5183605;28;20024;-30
2024/01/11 01:48:16;;;;;;;28.23;12.80;;;-6.80;91.90;;;;;;5169289;28;20044;-30
2024/01/11 01:50:51;;;;;;;25.23;13.07;;;-6.80;99.90;;;;;;5185782;28;20037;-30
2024/01/11 01:53:32;;;;;;;26.03;12.70;;;-6.70;99.90;;;;;;5186713;28;20046;-31
2024/01/11 01:56:07;;;;;;;24.83;13.37;;;-6.60;99.90;;;;;;5164315;28;20053;-30
2024/01/11 01:58:43;;;;;;;26.13;14.03;;;-6.40;99.90;;;;;;5192049;28;20033;-30
2024/01/11 02:01:15;;;;;;;28.07;13.70;;;-6.40;99.90;;;;;;5179662;28;20372;-31
2024/01/11 02:03:49;;;;;;;28.60;13.80;;;-6.40;99.90;;;;;;5186942;28;20029;-30
2024/01/11 02:06:29;;;;;;;25.57;13.57;;;-6.30;99.90;;;;;;5166840;28;20042;-30
2024/01/11 02:09:03;;;;;;;32.80;15.37;;;-6.30;99.90;;;;;;5177046;28;20048;-31
2024/01/11 02:11:37;;;;;;;28.03;14.37;;;-6.30;99.90;;;;;;5180533;28;20018;-30
2024/01/11 02:14:13;;;;;;;45.72;21.58;;;-6.30;99.90;;;;;;5184721;28;20030;-31
2024/01/11 02:16:46;;;;;;;26.43;14.37;;;-6.40;99.90;;;;;;5180595;28;20039;-30
2024/01/11 02:19:19;;;;;;;26.05;13.85;;;-6.50;76.90;;;;;;5186428;28;20101;-30
2024/01/11 02:22:03;;;;;;;25.30;13.30;;;-6.60;24.70;;;;;;5179675;28;20046;-30
2024/01/11 02:24:34;;;;;;;22.38;12.07;;;-6.70;1.00;;;;;;5182480;28;20338;-32
2024/01/11 02:27:10;;;;;;;21.57;11.60;;;-6.80;1.00;;;;;;5164779;28;20265;-31
2024/01/11 02:29:41;;;;;;;22.17;10.43;;;-6.90;1.00;;;;;;5183447;28;20094;-31
2024/01/11 02:32:13;;;;;;;23.93;12.43;;;-6.90;1.00;;;;;;5184018;28;20314;-31
2024/01/11 02:34:48;;;;;;;26.37;12.57;;;-6.90;1.00;;;;;;5178839;28;20041;-31
2024/01/11 02:37:23;;;;;;;25.27;12.10;;;-6.90;1.00;;;;;;5168901;28;20052;-30
2024/01/11 02:39:55;;;;;;;21.67;12.50;;;-7.00;1.00;;;;;;5187869;28;20045;-30
2024/01/11 02:42:28;;;;;;;25.67;13.07;;;-7.00;1.00;;;;;;5167643;28;20038;-30
2024/01/11 02:44:59;;;;;;;21.98;12.15;;;-7.10;1.00;;;;;;5189345;28;20037;-31
2024/01/11 02:47:33;;;;;;;24.57;13.13;;;-7.10;1.00;;;;;;5186052;28;20376;-30
2024/01/11 02:50:05;;;;;;;23.92;11.60;;;-7.10;1.00;;;;;;5190582;28;20302;-31
2024/01/11 02:52:38;;;;;;;26.37;14.10;;;-7.10;21.60;;;;;;5167541;28;20210;-31
2024/01/11 02:55:15;;;;;;;20.58;12.07;;;-7.20;51.90;;;;;;5183882;28;20037;-31
2024/01/11 02:57:46;;;;;;;25.93;12.13;;;-7.20;58.10;;;;;;5194785;28;20034;-31
2024/01/11 03:00:17;;;;;;;23.87;11.57;;;-7.20;99.90;;;;;;5197629;28;20029;-31
2024/01/11 03:02:54;;;;;;;23.63;13.03;;;-7.20;99.90;;;;;;5188517;28;20265;-31
2024/01/11 03:05:28;;;;;;;24.33;12.80;;;-7.20;90.50;;;;;;5189241;28;20044;-31
2024/01/11 03:08:02;;;;;;;21.80;11.07;;;-7.30;46.10;;;;;;5180613;28;20222;-30
2024/01/11 03:10:33;;;;;;;23.60;12.37;;;-7.30;32.70;;;;;;5165299;28;20034;-30
2024/01/11 03:13:05;;;;;;;27.13;14.27;;;-7.40;38.90;;;;;;5167213;28;20038;-32
2024/01/11 03:15:38;;;;;;;28.97;13.50;;;-7.40;85.90;;;;;;5170068;28;20033;-30
2024/01/11 03:18:09;;;;;;;22.77;12.73;;;-7.40;99.90;;;;;;5171786;28;20041;-30
2024/01/11 03:20:43;;;;;;;26.63;12.70;;;-7.50;99.90;;;;;;5172090;28;20033;-30
2024/01/11 03:23:14;;;;;;;24.67;12.68;;;-7.40;99.90;;;;;;5192049;28;20369;-30
2024/01/11 03:25:46;;;;;;;25.87;11.37;;;-7.40;99.90;;;;;;5181364;28;20045;-30
2024/01/11 03:28:20;;;;;;;27.93;12.73;;;-7.40;99.90;;;;;;5188073;28;20038;-31
2024/01/11 03:30:51;;;;;;;29.10;12.80;;;-7.40;99.90;;;;;;5186272;28;20038;-31
2024/01/11 03:33:22;;;;;;;26.73;11.33;;;-7.40;99.90;;;;;;5188805;28;20050;-30
2024/01/11 03:35:55;;;;;;;26.63;12.03;;;-7.40;99.90;;;;;;5168882;28;20046;-30
2024/01/11 03:38:31;;;;;;;24.63;12.00;;;-7.40;99.90;;;;;;5150958;28;20045;-32
2024/01/11 03:41:09;;;;;;;25.43;12.93;;;-7.40;99.90;;;;;;5168185;28;20041;-31
2024/01/11 03:43:43;;;;;;;24.17;13.93;;;-7.40;99.90;;;;;;5165782;28;20449;-31
2024/01/11 03:46:17;;;;;;;26.23;13.70;;;-7.30;99.90;;;;;;5175330;28;20034;-31
2024/01/11 03:48:48;;;;;;;24.85;13.55;;;-7.30;99.90;;;;;;5188911;28;20384;-30
2024/01/11 03:51:24;;;;;;;25.57;12.70;;;-7.30;99.90;;;;;;5168223;28;20033;-30
2024/01/11 03:53:56;;;;;;;25.03;12.03;;;-7.40;91.70;;;;;;5185179;28;20041;-30
2024/01/11 03:56:27;;;;;;;26.43;13.23;;;-7.40;93.70;;;;;;5179971;28;20705;-31
2024/01/11 03:58:58;;;;;;;28.20;12.07;;;-7.40;99.90;;;;;;5196576;28;20329;-31
2024/01/11 04:01:38;;;;;;;25.37;13.40;;;-7.40;99.90;;;;;;5181737;28;20062;-30
2024/01/11 04:04:10;;;;;;;26.53;11.27;;;-7.40;99.90;;;;;;5169374;28;20039;-31
2024/01/11 04:06:49;;;;;;;29.90;14.23;;;-7.50;99.90;;;;;;5189509;28;20047;-30
2024/01/11 04:09:26;;;;;;;32.07;15.17;;;-7.50;99.90;;;;;;5210378;28;20041;-31
2024/01/11 04:12:00;;;;;;;31.13;14.47;;;-7.50;99.90;;;;;;5183230;28;20187;-33
2024/01/11 04:14:39;;;;;;;27.23;12.73;;;-7.60;92.10;;;;;;5189872;28;20042;-31
2024/01/11 04:17:13;;;;;;;26.33;13.03;;;-7.60;99.90;;;;;;5187289;28;20300;-30
2024/01/11 04:19:47;;;;;;;25.80;13.17;;;-7.70;99.90;;;;;;5189646;28;20314;-30
2024/01/11 04:22:23;;;;;;;21.03;11.80;;;-7.70;99.90;;;;;;5183871;28;20033;-30
2024/01/11 04:25:01;;;;;;;23.23;11.40;;;-7.60;99.90;;;;;;5174986;28;20070;-30
2024/01/11 04:27:32;;;;;;;26.80;13.27;;;-7.50;99.90;;;;;;5187298;28;20033;-30
2024/01/11 04:30:04;;;;;;;21.80;12.60;;;-7.50;99.90;;;;;;5169852;28;20052;-30
2024/01/11 04:32:36;;;;;;;28.67;14.47;;;-7.40;99.90;;;;;;5187051;28;20330;-30
2024/01/11 04:35:10;;;;;;;35.90;17.53;;;-7.40;99.90;;;;;;5188034;28;20042;-30
2024/01/11 04:37:41;;;;;;;30.17;16.47;;;-7.50;99.90;;;;;;5187681;28;20046;-30
2024/01/11 04:40:14;;;;;;;30.20;14.00;;;-7.60;99.90;;;;;;5188156;28;20041;-31
2024/01/11 04:42:46;;;;;;;;;;;-7.60;99.90;;;;;;5170855;28;20046;-31
2024/01/11 04:45:20;;;;;;;29.80;14.57;;;-7.70;99.90;;;;;;5177308;28;19909;-30
2024/01/11 04:47:52;;;;;;;30.20;14.17;;;-7.70;99.90;;;;;;5188887;28;20032;-32
2024/01/11 04:50:25;;;;;;;27.83;15.37;;;-7.70;99.90;;;;;;5187444;28;20329;-32
2024/01/11 04:52:59;;;;;;;29.65;14.40;;;-7.70;99.90;;;;;;5205985;28;20041;-32
2024/01/11 04:55:33;;;;;;;25.30;13.83;;;-7.70;99.90;;;;;;5194067;28;20341;-31
2024/01/11 04:58:09;;;;;;;28.43;14.57;;;-7.60;99.90;;;;;;5175209;28;20030;-32
2024/01/11 05:00:43;;;;;;;27.60;14.73;;;-7.70;99.90;;;;;;5168487;28;20044;-32
2024/01/11 05:03:21;;;;;;;24.75;12.98;;;-7.60;99.90;;;;;;5186792;28;20372;-32
2024/01/11 05:05:54;;;;;;;29.87;13.50;;;-7.60;99.90;;;;;;5188304;28;20030;-32
2024/01/11 05:08:27;;;;;;;35.00;14.13;;;-7.60;99.90;;;;;;5154464;28;20343;-32
2024/01/11 05:11:01;;;;;;;31.47;16.00;;;-7.60;99.90;;;;;;5187819;28;20209;-32
2024/01/11 05:13:32;;;;;;;28.37;14.60;;;-7.60;99.90;;;;;;5187906;28;20018;-32
2024/01/11 05:16:04;;;;;;;33.97;15.37;;;-7.60;99.90;;;;;;5176218;28;20045;-32
2024/01/11 05:18:37;;;;;;;30.87;16.10;;;-7.60;99.90;;;;;;5188014;28;20211;-32
2024/01/11 05:21:22;;;;;;;31.20;16.13;;;-7.60;99.90;;;;;;5179147;28;20026;-32
2024/01/11 05:23:55;;;;;;;35.27;17.30;;;-7.50;99.90;;;;;;5190815;28;20041;-32
2024/01/11 05:26:28;;;;;;;31.30;15.43;;;-7.50;99.90;;;;;;5166478;28;20029;-32
2024/01/11 05:29:04;;;;;;;35.80;16.67;;;-7.50;99.90;;;;;;5181723;28;20026;-32
2024/01/11 05:31:37;;;;;;;35.23;15.53;;;-7.50;99.90;;;;;;5169409;28;20026;-32
2024/01/11 05:34:12;;;;;;;30.58;16.15;;;-7.50;99.90;;;;;;5188384;28;20029;-32
2024/01/11 05:36:44;;;;;;;31.93;16.73;;;-7.50;99.90;;;;;;5167207;28;20037;-32
2024/01/11 05:39:15;;;;;;;38.07;18.23;;;-7.50;99.90;;;;;;5200847;28;20333;-32
2024/01/11 05:41:49;;;;;;;35.43;17.40;;;-7.40;99.90;;;;;;5162610;28;20038;-30
2024/01/11 05:44:20;;;;;;;40.85;18.63;;;-7.40;99.90;;;;;;5160773;28;20046;-32
2024/01/11 05:46:53;;;;;;;37.83;18.77;;;-7.40;99.90;;;;;;5179817;28;20036;-31
2024/01/11 05:49:24;;;;;;;37.30;17.97;;;-7.30;99.90;;;;;;5183246;28;20028;-31
2024/01/11 05:51:56;;;;;;;38.27;18.20;;;-7.30;99.90;;;;;;5174152;28;20041;-30
2024/01/11 05:54:28;;;;;;;38.27;20.67;;;-7.30;99.90;;;;;;5179496;28;20231;-30
2024/01/11 05:56:59;;;;;;;41.23;19.57;;;-7.20;99.90;;;;;;5183778;28;20033;-30
2024/01/11 05:59:36;;;;;;;46.30;19.73;;;-7.10;99.90;;;;;;5171205;28;20033;-30
2024/01/11 06:02:07;;;;;;;40.43;20.60;;;-7.00;99.90;;;;;;5173939;28;20434;-30
2024/01/11 06:04:38;;;;;;;47.90;21.90;;;-7.00;99.90;;;;;;5182020;28;20026;-30
2024/01/11 06:07:10;;;;;;;43.37;20.97;;;-6.90;99.90;;;;;;5171500;28;20348;-30
2024/01/11 06:09:43;;;;;;;48.07;22.63;;;-6.90;99.90;;;;;;5188163;28;20325;-31
2024/01/11 06:12:15;;;;;;;44.17;20.15;;;-6.90;99.90;;;;;;5168600;28;20246;-30
2024/01/11 06:14:47;;;;;;;43.60;20.90;;;-6.90;99.90;;;;;;5169174;28;20046;-30
2024/01/11 06:17:18;;;;;;;50.93;22.43;;;-6.80;99.90;;;;;;5179725;28;20045;-30
2024/01/11 06:19:52;;;;;;;52.53;23.67;;;-6.70;99.90;;;;;;5182948;28;20045;-30
2024/01/11 06:22:23;;;;;;;47.97;22.58;;;-6.70;99.90;;;;;;5196102;28;20379;-31
2024/01/11 06:24:59;;;;;;;51.23;24.17;;;-6.60;99.90;;;;;;5182073;28;20049;-30
2024/01/11 06:27:35;;;;;;;48.07;23.17;;;-6.50;99.90;;;;;;5185893;28;20026;-30
2024/01/11 06:30:10;;;;;;;50.67;23.20;;;-6.50;99.90;;;;;;5170665;28;20315;-31
2024/01/11 06:32:44;;;;;;;45.40;22.43;;;-6.50;99.90;;;;;;5191087;28;20034;-31
2024/01/11 06:35:20;;;;;;;44.53;22.80;;;-6.50;99.90;;;;;;5190781;28;20046;-31
2024/01/11 06:37:51;;;;;;;44.67;21.87;;;-6.40;99.90;;;;;;5172933;28;20042;-30
2024/01/11 06:40:25;;;;;;;43.47;22.33;;;-6.40;99.90;;;;;;5190918;28;20091;-30
2024/01/11 06:43:01;;;;;;;49.40;22.48;;;-6.40;99.90;;;;;;5189651;28;20033;-33
2024/01/11 06:45:33;;;;;;;48.87;23.60;;;-6.40;99.90;;;;;;5163799;28;20042;-30
2024/01/11 06:48:06;;;;;;;47.07;23.73;;;-6.50;99.90;;;;;;5153054;28;20036;-31
2024/01/11 06:50:38;;;;;;;;;;;-6.70;99.90;;;;;;5170771;28;20034;-30
2024/01/11 06:53:09;;;;;;;49.63;23.87;;;-6.70;99.90;;;;;;5190351;28;19925;-30
2024/01/11 06:55:43;;;;;;;49.67;24.50;;;-6.60;99.90;;;;;;5187960;28;20038;-30
2024/01/11 06:58:16;;;;;;;45.07;21.83;;;-6.50;99.90;;;;;;5172826;28;20234;-30
2024/01/11 07:00:47;;;;;;;44.23;22.97;;;-6.50;99.90;;;;;;5186332;28;20037;-31
2024/01/11 07:03:18;;;;;;;46.23;23.83;;;-6.50;99.90;;;;;;5186608;28;20056;-31
2024/01/11 07:05:49;;;;;;;43.43;21.00;;;-6.50;99.90;;;;;;5175293;28;20034;-31
2024/01/11 07:08:21;;;;;;;48.87;23.30;;;-6.50;99.90;;;;;;5177337;28;20044;-30
2024/01/11 07:10:55;;;;;;;43.60;21.03;;;-6.50;99.90;;;;;;5182156;28;20322;-30
2024/01/11 07:13:26;;;;;;;;;;;-6.50;99.90;;;;;;5175448;28;20327;-31
2024/01/11 07:15:59;;;;;;;37.83;20.33;;;-6.40;99.90;;;;;;5180595;28;19913;-31
2024/01/11 07:18:31;;;;;;;46.17;22.02;;;-6.30;96.70;;;;;;5180547;28;20060;-31
2024/01/11 07:21:08;;;;;;;40.47;20.03;;;-6.30;81.60;;;;;;5187098;28;20042;-30
2024/01/11 07:23:41;;;;;;;42.73;20.70;;;-6.20;42.90;;;;;;5198838;28;20030;-30
2024/01/11 07:26:13;;;;;;;44.65;21.45;;;-6.10;12.30;;;;;;5183388;28;20046;-30
2024/01/11 07:28:44;;;;;;;45.93;22.20;;;-5.90;45.10;;;;;;5187523;28;20030;-30
2024/01/11 07:31:18;;;;;;;43.33;20.93;;;-5.70;7.10;;;;;;5184703;28;20034;-30
2024/01/11 07:33:50;;;;;;;39.27;20.37;;;-5.50;1.00;;;;;;5171837;28;20040;-30
2024/01/11 07:36:21;;;;;;;45.73;21.37;;;-5.40;1.00;;;;;;5189787;28;20227;-31
2024/01/11 07:38:53;;;;;;;39.27;20.33;;;-5.40;1.00;;;;;;5190905;28;20033;-30
2024/01/11 07:41:24;;;;;;;34.83;19.60;;;-5.30;1.00;;;;;;5210119;28;20044;-31
2024/01/11 07:43:59;;;;;;;38.73;19.57;;;-5.20;99.90;;;;;;5185894;28;20110;-30
2024/01/11 07:46:31;;;;;;;44.20;20.37;;;-5.10;99.90;;;;;;5184146;28;20034;-30
2024/01/11 07:49:03;;;;;;;40.33;19.87;;;-5.10;99.90;;;;;;5189507;28;20328;-30
2024/01/11 07:51:34;;;;;;;37.40;18.87;;;-5.00;62.00;;;;;;5194740;28;20345;-30
2024/01/11 07:54:08;;;;;;;40.93;19.33;;;-5.00;1.00;;;;;;5201195;28;20022;-30
2024/01/11 07:56:40;;;;;;;37.15;19.13;;;-5.00;99.90;;;;;;5188105;28;20042;-31
2024/01/11 07:59:14;;;;;;;42.97;20.10;;;-4.90;1.00;;;;;;5179537;28;20034;-30
2024/01/11 08:01:45;;;;;;;31.80;16.97;;;-4.80;1.00;;;;;;5162843;28;20232;-30
2024/01/11 08:04:16;;;;;;;37.97;18.40;;;-4.70;1.00;;;;;;5168018;28;20038;-30
2024/01/11 08:06:47;;;;;;;33.87;18.60;;;-4.60;1.00;;;;;;5163757;28;20046;-32
2024/01/11 08:09:19;;;;;;;35.33;19.50;;;-4.50;1.00;;;;;;5184887;28;20363;-30
2024/01/11 08:11:58;;;;;;;37.10;17.50;;;-4.40;99.90;;;;;;5189333;28;20246;-30
2024/01/11 08:14:33;;;;;;;35.43;18.87;;;-4.40;43.90;;;;;;5189415;28;20038;-30
2024/01/11 08:17:05;;;;;;;39.07;18.50;;;-4.40;1.00;;;;;;5183856;28;20042;-30
2024/01/11 08:19:37;;;;;;;36.03;18.30;;;-4.30;99.90;;;;;;5173059;28;20238;-30
2024/01/11 08:22:10;;;;;;;37.30;18.77;;;-4.40;1.00;;;;;;5187010;28;20042;-31
2024/01/11 08:24:47;;;;;;;35.87;16.93;;;-4.30;1.00;;;;;;5186734;28;20029;-31
2024/01/11 08:27:20;;;;;;;34.90;17.53;;;-4.30;1.00;;;;;;5168603;28;20026;-30
2024/01/11 08:29:52;;;;;;;37.70;17.53;;;-4.40;1.00;;;;;;5187166;28;20039;-30
2024/01/11 08:32:24;;;;;;;40.33;18.23;;;-4.30;99.90;;;;;;5185026;28;20327;-30
2024/01/11 08:35:01;;;;;;;32.50;16.73;;;-4.20;99.90;;;;;;5190760;28;20032;-30
2024/01/11 08:37:36;;;;;;;32.97;17.80;;;-4.20;1.00;;;;;;5188215;28;20357;-30
2024/01/11 08:40:21;;;;;;;28.02;14.57;;;-4.10;1.00;;;;;;5188017;28;20042;-32
2024/01/11 08:42:52;;;;;;;32.37;16.90;;;-4.10;1.00;;;;;;5187429;28;20034;-31
2024/01/11 08:45:26;;;;;;;33.00;18.83;;;-4.10;1.00;;;;;;5184936;28;20018;-30
2024/01/11 08:48:02;;;;;;;34.60;18.33;;;-4.00;1.00;;;;;;5187632;28;20026;-30
2024/01/11 08:50:37;;;;;;;35.83;16.07;;;-4.00;99.90;;;;;;5188198;28;20186;-30
2024/01/11 08:53:08;;;;;;;30.07;13.90;;;-3.90;1.00;;;;;;5207047;28;20037;-30
2024/01/11 08:55:45;;;;;;;26.47;14.23;;;-3.80;99.90;;;;;;5199945;28;20321;-30
2024/01/11 08:58:16;;;;;;;29.03;14.30;;;-3.70;99.90;;;;;;5182416;28;20054;-30
2024/01/11 09:00:47;;;;;;;20.73;10.37;;;-3.80;1.00;;;;;;5172062;28;20044;-30
2024/01/11 09:03:21;;;;;;;29.50;12.37;;;-3.80;1.00;;;;;;5170396;28;20337;-29
2024/01/11 09:05:56;;;;;;;19.67;12.37;;;-3.80;1.00;;;;;;5186263;28;20367;-31
2024/01/11 09:08:31;;;;;;;24.30;11.70;;;-3.70;1.00;;;;;;5186677;28;20352;-31
2024/01/11 09:11:05;;;;;;;24.70;12.53;;;-3.70;1.00;;;;;;5168172;28;20222;-31
2024/01/11 09:13:40;;;;;;;;;;;-3.60;1.00;;;;;;5183770;28;20025;-30
2024/01/11 09:16:16;;;;;;;;;;;-3.50;1.00;;;;;;5183288;28;19921;-31
2024/01/11 09:18:51;;;;;;;33.33;15.17;;;-3.50;99.90;;;;;;5178820;28;19909;-31
2024/01/11 09:21:22;;;;;;;28.80;13.60;;;-3.30;1.00;;;;;;5176047;28;20040;-31
2024/01/11 09:23:53;;;;;;;21.37;11.63;;;-3.20;99.90;;;;;;5201415;28;20030;-30
2024/01/11 09:26:25;;;;;;;19.30;11.20;;;-3.00;11.50;;;;;;5186890;28;20033;-30
2024/01/11 09:28:56;;;;;;;27.67;11.73;;;-2.90;1.00;;;;;;5183237;28;20030;-30
2024/01/11 09:31:32;;;;;;;26.77;13.03;;;-2.90;1.00;;;;;;5181687;28;20033;-30
2024/01/11 09:34:03;;;;;;;25.00;11.10;;;-2.70;99.90;;;;;;5180732;28;20029;-31
2024/01/11 09:36:38;;;;;;;23.97;11.93;;;-2.60;1.00;;;;;;5188114;28;20037;-30
2024/01/11 09:39:15;;;;;;;21.13;12.30;;;-2.50;1.00;;;;;;5187590;28;20024;-31
2024/01/11 09:41:56;;;;;;;21.07;12.33;;;-2.40;1.00;;;;;;5188210;28;20042;-30
2024/01/11 09:44:33;;;;;;;26.17;11.93;;;-2.50;1.00;;;;;;5188613;28;20203;-30
2024/01/11 09:47:09;;;;;;;21.10;11.27;;;-2.50;1.00;;;;;;5195478;28;20033;-30
2024/01/11 09:49:42;;;;;;;24.17;12.00;;;-2.20;1.00;;;;;;5180197;28;20052;-30
2024/01/11 09:52:16;;;;;;;25.93;11.63;;;-2.10;99.90;;;;;;5163354;28;20038;-30
2024/01/11 09:54:48;;;;;;;22.43;12.17;;;-1.70;99.90;;;;;;5168608;28;20094;-30
2024/01/11 09:57:29;;;;;;;28.73;14.70;;;-1.50;99.90;;;;;;5173303;28;20453;-30
2024/01/11 10:00:04;;;;;;;28.60;14.48;;;-1.30;99.90;;;;;;5181000;28;20049;-31
2024/01/11 10:02:40;;;;;;;35.58;14.85;;;-0.90;99.90;;;;;;5173745;28;20041;-30
2024/01/11 10:05:13;;;;;;;23.25;13.40;;;-0.80;1.00;;;;;;5165244;28;20038;-30
2024/01/11 10:07:47;;;;;;;25.80;14.57;;;-0.50;1.00;;;;;;5171410;28;20030;-31
2024/01/11 10:10:21;;;;;;;33.83;15.13;;;-0.10;1.00;;;;;;5186922;28;20029;-31
2024/01/11 10:12:52;;;;;;;29.25;14.38;;;0.40;1.00;;;;;;5170072;28;20033;-31
2024/01/11 10:15:24;;;;;;;27.13;13.13;;;0.90;1.00;;;;;;5164121;28;20293;-31
2024/01/11 10:17:56;;;;;;;26.58;13.48;;;0.60;1.00;;;;;;5171034;28;20041;-31
2024/01/11 10:20:29;;;;;;;29.60;13.10;;;0.60;1.00;;;;;;5169331;28;20225;-31
2024/01/11 10:23:02;;;;;;;23.90;13.70;;;1.10;1.00;;;;;;5171192;28;20043;-32
2024/01/11 10:25:34;;;;;;;28.75;12.13;;;0.40;99.90;;;;;;5190724;28;20057;-32
2024/01/11 10:28:09;;;;;;;25.80;12.52;;;-0.20;99.90;;;;;;5180267;28;20034;-32
2024/01/11 10:30:43;;;;;;;24.27;14.48;;;-0.10;1.00;;;;;;5183168;28;20034;-32
2024/01/11 10:33:19;;;;;;;26.08;12.40;;;-0.50;99.90;;;;;;5167821;28;20042;-32
2024/01/11 10:35:53;;;;;;;25.17;13.23;;;-0.20;1.00;;;;;;5160932;28;20041;-32
2024/01/11 10:38:29;;;;;;;28.60;14.85;;;0.50;1.00;;;;;;5181500;28;20026;-32
2024/01/11 10:41:03;;;;;;;25.42;13.98;;;0.50;1.00;;;;;;5185701;28;20241;-32
2024/01/11 10:43:41;;;;;;;21.38;12.35;;;0.70;1.00;;;;;;5185604;28;20044;-32
2024/01/11 10:46:16;;;;;;;24.83;11.32;;;0.90;1.00;;;;;;5166646;28;20030;-34
2024/01/11 10:48:49;;;;;;;27.88;14.43;;;0.50;99.90;;;;;;5187304;28;20010;-31
2024/01/11 10:51:25;;;;;;;20.13;12.40;;;0.30;99.90;;;;;;5184184;28;20349;-31
2024/01/11 10:54:02;;;;;;;27.48;15.43;;;-0.40;99.90;;;;;;5179559;28;20041;-31
2024/01/11 10:56:40;;;;;;;22.30;12.38;;;-0.80;99.90;;;;;;5188801;28;20030;-31
2024/01/11 10:59:12;;;;;;;21.92;12.10;;;0.10;99.90;;;;;;5189600;28;20072;-31
2024/01/11 11:01:50;;;;;;;23.52;12.02;;;0.00;99.90;;;;;;5185471;28;20044;-31
2024/01/11 11:04:25;;;;;;;20.30;12.48;;;0.30;99.90;;;;;;5176496;28;20048;-32
2024/01/11 11:06:59;;;;;;;26.08;13.20;;;0.20;99.90;;;;;;5170316;28;20039;-31
2024/01/11 11:09:34;;;;;;;22.13;13.00;;;0.30;99.90;;;;;;5159851;28;20030;-30
2024/01/11 11:12:06;;;;;;;24.25;13.40;;;0.20;99.90;;;;;;5189581;28;20033;-30
2024/01/11 11:14:41;;;;;;;27.48;13.05;;;0.30;99.90;;;;;;5172565;28;20239;-30
2024/01/11 11:17:15;;;;;;;23.92;12.02;;;0.80;99.90;;;;;;5167640;28;20038;-32
2024/01/11 11:19:46;;;;;;;25.48;13.65;;;0.90;99.90;;;;;;5189917;28;20040;-34
2024/01/11 11:22:19;;;;;;;26.88;12.18;;;1.10;99.90;;;;;;5201877;28;20029;-32
2024/01/11 11:25:05;;;;;;;24.42;13.15;;;1.50;99.90;;;;;;5185484;28;20040;-32
2024/01/11 11:27:39;;;;;;;24.55;12.10;;;0.80;99.90;;;;;;5185938;28;20034;-33
2024/01/11 11:30:17;;;;;;;20.05;11.23;;;0.50;99.90;;;;;;5185101;28;20060;-32
2024/01/11 11:32:49;;;;;;;25.58;12.32;;;0.70;99.90;;;;;;5189734;28;20029;-32
2024/01/11 11:35:22;;;;;;;22.58;12.75;;;1.00;99.90;;;;;;5189801;28;20052;-32
2024/01/11 11:37:57;;;;;;;24.48;12.90;;;1.40;99.90;;;;;;5189706;28;20194;-32
2024/01/11 11:40:42;;;;;;;18.38;10.27;;;0.90;99.90;;;;;;5168073;28;20270;-32
2024/01/11 11:43:17;;;;;;;21.65;12.52;;;1.00;99.90;;;;;;5165975;28;20049;-32
2024/01/11 11:45:53;;;;;;;20.80;12.15;;;0.70;99.90;;;;;;5184681;28;20044;-32
2024/01/11 11:48:32;;;;;;;24.00;11.82;;;1.00;99.90;;;;;;5187766;28;20067;-32
2024/01/11 11:51:16;;;;;;;19.52;11.60;;;1.80;99.90;;;;;;5189864;28;20330;-32
2024/01/11 11:53:51;;;;;;;24.33;12.43;;;2.10;99.90;;;;;;5171416;28;20052;-32
2024/01/11 11:56:24;;;;;;;22.98;12.52;;;2.20;99.90;;;;;;5186315;28;20177;-32
2024/01/11 11:58:55;;;;;;;19.75;10.85;;;2.80;99.90;;;;;;5157175;28;20046;-32
2024/01/11 12:01:32;;;;;;;19.30;11.18;;;2.60;26.40;;;;;;5168723;28;20041;-32
2024/01/11 12:04:08;;;;;;;21.52;10.82;;;2.20;1.00;;;;;;5170287;28;20046;-32
2024/01/11 12:06:39;;;;;;;19.65;10.48;;;2.10;1.00;;;;;;5189043;28;20037;-32
2024/01/11 12:09:11;;;;;;;20.40;10.15;;;1.90;1.00;;;;;;5188301;28;20245;-32
2024/01/11 12:11:44;;;;;;;18.48;11.25;;;1.90;1.00;;;;;;5171857;28;20044;-32
2024/01/11 12:14:18;;;;;;;18.60;10.05;;;1.90;1.00;;;;;;5186743;28;20296;-31
2024/01/11 12:16:57;;;;;;;21.27;11.35;;;1.90;1.00;;;;;;5176160;28;20076;-31
2024/01/11 12:19:29;;;;;;;21.95;12.93;;;1.90;1.00;;;;;;5186933;28;20034;-32
2024/01/11 12:22:00;;;;;;;22.27;11.07;;;2.10;1.00;;;;;;5198106;28;20235;-32
2024/01/11 12:24:33;;;;;;;19.35;10.75;;;2.60;1.00;;;;;;5198119;28;20038;-32
2024/01/11 12:27:04;;;;;;;22.10;10.73;;;3.20;1.00;;;;;;5188159;28;20200;-33
2024/01/11 12:29:39;;;;;;;20.67;10.80;;;3.90;1.00;;;;;;5187060;28;20044;-32
2024/01/11 12:32:16;;;;;;;22.55;11.95;;;4.30;1.00;;;;;;5171979;28;20248;-32
2024/01/11 12:34:47;;;;;;;18.83;10.93;;;4.60;1.00;;;;;;5188430;28;20044;-32
2024/01/11 12:37:21;;;;;;;22.48;11.63;;;4.30;1.00;;;;;;5187049;28;20042;-32
2024/01/11 12:39:58;;;;;;;18.38;11.23;;;4.40;1.00;;;;;;5178503;28;20038;-31
2024/01/11 12:42:31;;;;;;;21.65;12.15;;;4.90;1.00;;;;;;5185890;28;20040;-32
2024/01/11 12:45:06;;;;;;;24.45;11.80;;;3.90;1.00;;;;;;5181207;28;20225;-32
2024/01/11 12:47:40;;;;;;;21.65;10.82;;;2.50;1.00;;;;;;5185655;28;20029;-32
2024/01/11 12:50:12;;;;;;;23.90;11.07;;;2.60;1.00;;;;;;5183995;28;20210;-31
2024/01/11 12:52:43;;;;;;;20.65;9.38;;;3.00;1.00;;;;;;5178972;28;20376;-33
2024/01/11 12:55:20;;;;;;;23.20;12.10;;;2.90;1.00;;;;;;5169602;28;20341;-31
2024/01/11 12:58:11;;;;;;;21.13;12.00;;;2.00;1.00;;;;;;5186289;28;20045;-31
2024/01/11 13:00:45;;;;;;;23.05;10.77;;;2.10;1.00;;;;;;5172053;28;20030;-36
2024/01/11 13:03:20;;;;;;;24.63;11.60;;;1.70;1.00;;;;;;5182162;28;20042;-31
2024/01/11 13:05:51;;;;;;;;;;;2.00;1.00;;;;;;5181709;28;20295;-32
2024/01/11 13:08:23;;;;;;;22.15;11.70;;;2.30;1.00;;;;;;5187955;28;20149;-31